Portada
METAR-TAF:

METAR-TAF

Aeroports :

Tottori, Japó

latitud: 35-32N, longitud: 134-10E, altitud: 15 m

Observació

L'informe es va fer fa 3 hores i 28 minuts, a les 12:00 UTC
Vent 6 kt del Sud-Est
Temperatura 10°C
Humitat 87%
Pressió 1024 hPa
Visibilitat 10 km o més
Escasses núvols a una alçada de 3000 ft
Cel ennuvolat a una alçada de 9000 ft

METAR: RJOR 241200Z 14006KT 9999 FEW030 BKN090 10/08 Q1024

Hora: 00:28 (15:28 UTC)


TAF: manca

Observacions i pronòstics meteorològics de més de 4000 aeroports (METAR i TAF).

Les estacions disponibles són els punts grocs i vermells al mapa.

Posi el ratolí al punt desitjat per veure el nom de l'estació.

Feu clic per veure les observacions i els pronòstics meteorològics.

Per canviar el mapa: feu clic els botons verds amb una creu de color negre per apropar; al botó verd amb un guió per allunyar la imatge; o en les fletxes verdes per a mapes adjacents.


METAR-TAF: